Time;durP1;ratioP1;P1;durP2;ratioP2;P2;SDS_P1;SDS_P2;PMS_P1;PMS_P2;Temp;Humidity;BMP_temperature;BMP_pressure;BME280_temperature;BME280_humidity;BME280_pressure;Samples;Min_cycle;Max_cycle;Signal;HPM_P1;HPM_P2
2022/10/11 03:02:41;;;;;;;10.50;1.75;;;7.40;99.90;;;;;;6308238;22;20019;-82
2022/10/11 03:05:07;;;;;;;8.80;1.85;;;7.40;99.90;;;;;;6281882;22;20011;-82
2022/10/11 03:07:33;;;;;;;11.00;2.17;;;7.30;99.90;;;;;;6281646;22;20428;-82
2022/10/11 03:09:59;;;;;;;10.43;2.20;;;7.30;99.90;;;;;;6281747;22;20050;-81
2022/10/11 03:12:24;;;;;;;12.50;2.30;;;7.30;99.90;;;;;;6281873;22;20026;-78
2022/10/11 03:14:50;;;;;;;12.25;1.80;;;7.20;99.90;;;;;;6256381;22;20393;-80
2022/10/11 03:17:16;;;;;;;11.55;1.80;;;7.20;99.90;;;;;;6256126;22;20340;-80
2022/10/11 03:19:41;;;;;;;10.52;2.17;;;7.20;99.90;;;;;;6281675;22;20090;-79
2022/10/11 03:22:07;;;;;;;8.68;1.52;;;7.10;99.90;;;;;;6281640;22;20011;-80
2022/10/11 03:24:33;;;;;;;9.95;1.33;;;7.10;99.90;;;;;;6309264;22;20018;-80
2022/10/11 03:26:58;;;;;;;14.65;1.73;;;7.10;99.90;;;;;;6281689;22;20022;-78
2022/10/11 03:29:24;;;;;;;7.78;1.27;;;7.10;99.90;;;;;;6281962;22;20042;-78
2022/10/11 03:31:49;;;;;;;8.90;1.55;;;7.00;99.90;;;;;;6281595;22;20373;-83
2022/10/11 03:34:15;;;;;;;7.88;1.33;;;7.00;99.90;;;;;;6281598;22;20077;-81
2022/10/11 03:36:41;;;;;;;7.70;1.70;;;6.90;99.90;;;;;;6281587;22;20456;-80
2022/10/11 03:39:06;;;;;;;11.43;1.40;;;6.90;99.90;;;;;;6281626;22;20030;-81
2022/10/11 03:41:32;;;;;;;8.15;1.48;;;6.90;99.90;;;;;;6281376;22;20015;-81
2022/10/11 03:43:57;;;;;;;11.98;1.70;;;6.90;99.90;;;;;;6281546;22;20046;-82
2022/10/11 03:46:23;;;;;;;5.22;1.30;;;6.90;99.90;;;;;;6281509;22;20045;-82
2022/10/11 03:48:49;;;;;;;7.93;1.42;;;6.90;99.90;;;;;;6281613;22;20003;-81
2022/10/11 03:51:15;;;;;;;7.22;1.60;;;6.90;99.90;;;;;;6281405;22;20007;-81
2022/10/11 03:53:40;;;;;;;10.93;1.45;;;6.80;99.90;;;;;;6281317;22;20375;-80
2022/10/11 03:56:07;;;;;;;6.25;1.98;;;6.80;99.90;;;;;;6256921;22;20011;-80
2022/10/11 03:58:33;;;;;;;10.07;1.60;;;6.80;99.90;;;;;;6281241;22;20015;-80
2022/10/11 04:00:58;;;;;;;5.70;1.52;;;6.80;99.90;;;;;;6281058;22;20014;-84
2022/10/11 04:03:24;;;;;;;9.18;1.60;;;6.70;99.90;;;;;;6309155;22;20049;-81
2022/10/11 04:05:50;;;;;;;13.10;1.73;;;6.70;99.90;;;;;;6281397;22;20007;-81
2022/10/11 04:08:16;;;;;;;5.80;1.30;;;6.80;99.90;;;;;;6281280;22;20018;-80
2022/10/11 04:10:41;;;;;;;8.05;1.55;;;6.70;99.90;;;;;;6281485;22;20019;-80
2022/10/11 04:13:09;;;;;;;5.53;1.90;;;6.80;99.90;;;;;;6281277;22;20022;-82
2022/10/11 04:15:40;;;;;;;6.68;1.83;;;6.70;99.90;;;;;;6255762;22;20011;-80
2022/10/11 04:18:10;;;;;;;6.00;1.13;;;6.70;99.90;;;;;;6282495;22;20019;-81
2022/10/11 04:20:35;;;;;;;8.43;1.17;;;6.70;99.90;;;;;;6255401;22;20367;-81
2022/10/11 04:23:01;;;;;;;5.93;1.90;;;6.70;99.90;;;;;;6281316;22;20008;-77
2022/10/11 04:25:30;;;;;;;15.95;2.03;;;6.70;99.90;;;;;;6308904;22;20007;-78
2022/10/11 04:27:55;;;;;;;6.15;1.35;;;6.60;99.90;;;;;;6281196;22;20015;-78
2022/10/11 04:30:21;;;;;;;4.43;1.10;;;6.60;99.90;;;;;;6281069;22;20003;-77
2022/10/11 04:32:47;;;;;;;13.25;2.15;;;6.60;99.90;;;;;;6280731;22;20022;-80
2022/10/11 04:35:13;;;;;;;10.48;1.50;;;6.50;99.90;;;;;;6255122;22;20015;-81
2022/10/11 04:37:39;;;;;;;15.77;1.98;;;6.60;99.90;;;;;;6280914;22;20015;-80
2022/10/11 04:40:06;;;;;;;15.48;1.85;;;6.60;99.90;;;;;;6280965;22;20011;-80
2022/10/11 04:42:33;;;;;;;12.75;1.70;;;6.70;99.90;;;;;;6280487;22;20015;-78
2022/10/11 04:44:58;;;;;;;11.68;1.60;;;6.80;99.90;;;;;;6281007;22;20018;-78
2022/10/11 04:47:24;;;;;;;11.88;1.70;;;6.90;99.90;;;;;;6281255;22;20082;-82
2022/10/11 04:49:50;;;;;;;8.18;1.17;;;7.00;99.90;;;;;;6280886;22;20037;-82
2022/10/11 04:52:16;;;;;;;6.45;1.40;;;6.90;99.90;;;;;;6281353;22;20042;-82
2022/10/11 04:54:41;;;;;;;10.30;1.58;;;7.00;99.90;;;;;;6280922;22;20043;-80
2022/10/11 04:57:07;;;;;;;6.65;1.60;;;6.90;99.90;;;;;;6281424;22;20015;-79
2022/10/11 04:59:33;;;;;;;8.30;1.45;;;6.90;99.90;;;;;;6255756;22;20023;-79
2022/10/11 05:01:58;;;;;;;9.57;1.40;;;6.80;99.90;;;;;;6281018;22;20053;-80
2022/10/11 05:04:24;;;;;;;9.05;1.42;;;6.80;99.90;;;;;;6281251;22;20043;-78
2022/10/11 05:06:50;;;;;;;8.82;1.40;;;6.80;99.90;;;;;;6281394;22;20018;-80
2022/10/11 05:09:15;;;;;;;11.57;2.17;;;6.70;99.90;;;;;;6308028;22;20007;-77
2022/10/11 05:11:41;;;;;;;10.60;1.80;;;6.70;99.90;;;;;;6279851;22;20133;-79
2022/10/11 05:14:06;;;;;;;7.35;1.98;;;6.70;99.90;;;;;;6279877;22;20049;-79
2022/10/11 05:16:32;;;;;;;12.82;2.65;;;6.70;99.90;;;;;;6279959;22;20015;-79
2022/10/11 05:18:58;;;;;;;10.38;1.95;;;6.70;99.90;;;;;;6280123;22;20011;-78
2022/10/11 05:21:26;;;;;;;9.30;1.75;;;6.60;99.90;;;;;;6279724;22;20016;-81
2022/10/11 05:23:54;;;;;;;13.48;2.67;;;6.70;99.90;;;;;;6279837;22;20091;-82
2022/10/11 05:26:21;;;;;;;7.00;1.77;;;6.60;99.90;;;;;;6307726;22;20374;-82
2022/10/11 05:28:47;;;;;;;8.68;1.67;;;6.60;99.90;;;;;;6307122;22;20068;-79
2022/10/11 05:31:14;;;;;;;11.00;1.90;;;6.60;99.90;;;;;;6279921;22;20053;-81
2022/10/11 05:33:39;;;;;;;12.10;2.30;;;6.60;99.90;;;;;;6279967;22;20019;-80
2022/10/11 05:36:06;;;;;;;10.80;1.48;;;6.60;99.90;;;;;;6279150;22;20031;-81
2022/10/11 05:38:31;;;;;;;7.78;1.55;;;6.60;99.90;;;;;;6279989;22;20623;-83
2022/10/11 05:41:02;;;;;;;7.45;1.67;;;6.70;99.90;;;;;;6254208;22;20058;-78
2022/10/11 05:43:28;;;;;;;9.93;1.73;;;6.70;99.90;;;;;;6280467;22;20022;-81
2022/10/11 05:45:54;;;;;;;13.73;2.00;;;6.80;99.90;;;;;;6280546;22;20004;-78
2022/10/11 05:48:20;;;;;;;14.07;1.52;;;6.90;99.90;;;;;;6280710;22;20029;-80
2022/10/11 05:50:46;;;;;;;10.27;1.50;;;6.90;99.90;;;;;;6283245;22;20094;-79
2022/10/11 05:53:12;;;;;;;12.23;2.08;;;6.90;99.90;;;;;;6282421;22;20017;-79
2022/10/11 05:55:40;;;;;;;5.72;1.40;;;7.00;99.90;;;;;;6282867;22;20011;-78
2022/10/11 05:58:13;;;;;;;4.60;1.10;;;7.00;99.90;;;;;;6282180;22;20046;-76
2022/10/11 06:00:38;;;;;;;14.85;1.83;;;7.00;99.90;;;;;;6309297;22;20011;-81
2022/10/11 06:03:06;;;;;;;11.85;2.70;;;7.00;99.90;;;;;;6282054;22;20012;-77
2022/10/11 06:05:33;;;;;;;9.13;1.70;;;7.10;99.90;;;;;;6281922;22;20467;-77
2022/10/11 06:07:59;;;;;;;11.63;2.25;;;7.00;99.90;;;;;;6309549;22;20433;-79
2022/10/11 06:10:25;;;;;;;8.30;2.13;;;7.00;99.90;;;;;;6282052;22;20068;-78
2022/10/11 06:12:51;;;;;;;13.35;2.10;;;7.00;99.90;;;;;;6282309;22;20015;-81
2022/10/11 06:15:16;;;;;;;7.60;1.75;;;7.00;99.90;;;;;;6282185;22;20016;-80
2022/10/11 06:17:42;;;;;;;11.95;2.00;;;7.00;99.90;;;;;;6282207;22;20011;-80
2022/10/11 06:20:09;;;;;;;5.82;1.33;;;7.00;99.90;;;;;;6310381;22;20007;-80
2022/10/11 06:22:34;;;;;;;13.82;1.70;;;7.10;99.90;;;;;;6282064;22;20016;-80
2022/10/11 06:25:00;;;;;;;5.32;1.27;;;7.20;99.90;;;;;;6256454;22;20011;-79
2022/10/11 06:27:26;;;;;;;11.23;1.60;;;7.30;99.90;;;;;;6282298;22;20046;-82
2022/10/11 06:29:51;;;;;;;8.02;1.85;;;7.30;99.90;;;;;;6282125;22;20007;-80
2022/10/11 06:32:17;;;;;;;8.85;1.50;;;7.30;99.90;;;;;;6309724;22;20069;-77
2022/10/11 06:34:43;;;;;;;7.13;1.50;;;7.30;99.90;;;;;;6256414;22;20353;-78
2022/10/11 06:37:08;;;;;;;7.68;1.42;;;7.30;99.90;;;;;;6282004;22;20022;-80
2022/10/11 06:39:34;;;;;;;9.57;1.83;;;7.30;99.90;;;;;;6281898;22;20022;-80
2022/10/11 06:42:00;;;;;;;11.85;1.70;;;7.40;99.90;;;;;;6256344;22;20098;-80
2022/10/11 06:44:26;;;;;;;16.50;2.53;;;7.40;99.90;;;;;;6281963;22;20094;-79
2022/10/11 06:46:51;;;;;;;9.38;1.52;;;7.40;99.90;;;;;;6281800;22;20011;-80
2022/10/11 06:49:17;;;;;;;11.07;2.08;;;7.50;99.90;;;;;;6281683;22;20337;-77
2022/10/11 06:51:43;;;;;;;9.55;1.45;;;7.60;99.90;;;;;;6281678;22;20038;-81
2022/10/11 06:54:09;;;;;;;8.45;1.55;;;7.60;99.90;;;;;;6282599;22;20030;-82
2022/10/11 06:56:34;;;;;;;7.18;1.60;;;7.70;99.90;;;;;;6256243;22;20387;-81
2022/10/11 06:59:00;;;;;;;11.75;1.63;;;7.70;99.90;;;;;;6309605;22;20056;-76
2022/10/11 07:01:26;;;;;;;5.88;1.42;;;7.80;99.90;;;;;;6281928;22;20398;-81
2022/10/11 07:03:54;;;;;;;11.93;1.90;;;7.90;99.90;;;;;;6282346;22;20012;-77
2022/10/11 07:06:22;;;;;;;6.65;1.10;;;7.90;99.90;;;;;;6282098;22;20011;-78
2022/10/11 07:08:49;;;;;;;9.63;2.03;;;7.90;99.90;;;;;;6282019;22;20007;-80
2022/10/11 07:11:17;;;;;;;5.50;1.30;;;7.90;99.90;;;;;;6256463;22;20128;-78
2022/10/11 07:13:49;;;;;;;11.02;1.65;;;8.00;99.90;;;;;;6309454;22;20014;-80
2022/10/11 07:16:15;;;;;;;8.98;1.40;;;8.10;99.90;;;;;;6282103;22;20027;-79
2022/10/11 07:18:40;;;;;;;8.88;1.52;;;8.10;99.90;;;;;;6281700;22;20003;-80
2022/10/11 07:21:09;;;;;;;8.55;1.27;;;8.10;99.90;;;;;;6281536;22;20008;-82
2022/10/11 07:23:36;;;;;;;7.88;1.42;;;8.10;99.90;;;;;;6256163;22;20061;-78
2022/10/11 07:26:02;;;;;;;15.40;1.88;;;8.10;99.90;;;;;;6281821;22;20011;-78
2022/10/11 07:28:29;;;;;;;6.80;1.27;;;8.20;99.90;;;;;;6281838;22;20011;-79
2022/10/11 07:30:56;;;;;;;7.85;1.60;;;8.20;99.90;;;;;;6281486;22;20090;-79
2022/10/11 07:33:21;;;;;;;14.45;1.83;;;8.30;99.90;;;;;;6281607;22;20056;-80
2022/10/11 07:35:48;;;;;;;8.13;1.30;;;8.30;99.90;;;;;;6281515;22;20318;-81
2022/10/11 07:38:14;;;;;;;10.73;1.40;;;8.30;99.90;;;;;;6281549;22;20432;-79
2022/10/11 07:40:45;;;;;;;7.90;1.40;;;8.40;99.90;;;;;;6308884;22;20011;-81
2022/10/11 07:43:11;;;;;;;6.15;1.50;;;8.50;99.90;;;;;;6281808;22;20018;-78
2022/10/11 07:45:43;;;;;;;5.32;1.33;;;8.50;99.90;;;;;;6281427;22;20459;-81
2022/10/11 07:48:10;;;;;;;11.60;1.98;;;8.60;99.90;;;;;;6255970;22;20432;-82
2022/10/11 07:50:36;;;;;;;8.50;1.60;;;8.70;99.90;;;;;;6281529;22;20448;-80
2022/10/11 07:53:02;;;;;;;11.63;1.88;;;8.80;99.90;;;;;;6281587;22;20013;-81
2022/10/11 07:55:30;;;;;;;8.70;1.65;;;8.80;99.90;;;;;;6281390;22;20015;-79
2022/10/11 07:57:56;;;;;;;11.77;2.35;;;8.90;99.90;;;;;;6281422;22;20046;-79
2022/10/11 08:00:23;;;;;;;7.35;1.10;;;9.00;99.90;;;;;;6280937;22;20443;-80
2022/10/11 08:02:48;;;;;;;5.70;1.20;;;9.10;99.90;;;;;;6281192;22;20091;-79
2022/10/11 08:05:14;;;;;;;7.22;1.50;;;9.20;99.90;;;;;;6281174;22;20038;-79
2022/10/11 08:07:39;;;;;;;9.75;1.40;;;9.30;99.90;;;;;;6281127;22;20415;-79
2022/10/11 08:10:08;;;;;;;6.25;1.42;;;9.40;99.90;;;;;;6281030;22;20015;-80
2022/10/11 08:12:34;;;;;;;10.05;2.47;;;9.50;99.90;;;;;;6280687;22;20022;-79
2022/10/11 08:14:59;;;;;;;11.18;1.30;;;9.50;99.90;;;;;;6280901;22;20051;-78
2022/10/11 08:17:25;;;;;;;9.10;1.20;;;9.70;99.90;;;;;;6280826;22;20416;-80
2022/10/11 08:19:51;;;;;;;8.65;1.33;;;9.80;99.90;;;;;;6280866;22;20015;-79
2022/10/11 08:22:17;;;;;;;8.85;1.38;;;9.90;99.90;;;;;;6280751;22;20090;-80
2022/10/11 08:24:42;;;;;;;4.55;1.45;;;10.00;99.90;;;;;;6281000;22;20069;-79
2022/10/11 08:27:08;;;;;;;10.35;1.40;;;10.10;99.90;;;;;;6280773;22;20081;-81
2022/10/11 08:29:34;;;;;;;7.47;1.45;;;10.30;99.90;;;;;;6280782;22;20359;-80
2022/10/11 08:31:59;;;;;;;6.10;2.10;;;10.30;99.90;;;;;;6280434;22;20015;-77
2022/10/11 08:34:28;;;;;;;7.20;1.30;;;10.50;99.90;;;;;;6281278;22;20023;-80
2022/10/11 08:36:54;;;;;;;7.43;1.10;;;10.70;99.90;;;;;;6308564;22;20026;-82
2022/10/11 08:39:19;;;;;;;5.07;1.20;;;10.80;99.90;;;;;;6280634;22;20444;-79
2022/10/11 08:41:53;;;;;;;6.43;1.05;;;10.90;99.90;;;;;;6280716;22;20086;-75
2022/10/11 08:44:19;;;;;;;6.13;1.35;;;11.00;99.90;;;;;;6308429;22;20011;-82
2022/10/11 08:46:51;;;;;;;5.35;1.20;;;11.10;99.90;;;;;;6280673;22;20014;-82
2022/10/11 08:49:22;;;;;;;7.57;1.33;;;11.30;99.90;;;;;;6282231;22;20019;-77
2022/10/11 08:51:58;;;;;;;5.25;1.38;;;11.40;99.90;;;;;;6280633;22;20011;-78
2022/10/11 08:54:52;;;;;;;11.25;1.73;;;11.50;99.90;;;;;;6281697;22;20018;-78
2022/10/11 08:57:21;;;;;;;5.22;1.25;;;11.60;99.90;;;;;;6280547;22;20015;-84
2022/10/11 08:59:55;;;;;;;8.50;1.23;;;11.80;99.90;;;;;;6308572;22;20011;-74
2022/10/11 09:02:43;;;;;;;7.07;1.30;;;11.90;99.90;;;;;;6280267;22;20016;-76
2022/10/11 09:05:14;;;;;;;11.95;1.67;;;12.10;99.90;;;;;;6308077;22;20007;-76
2022/10/11 09:07:46;;;;;;;8.65;1.20;;;12.30;99.90;;;;;;6280468;22;20433;-76
2022/10/11 09:10:46;;;;;;;6.53;1.15;;;12.70;99.90;;;;;;6280317;22;20018;-76
2022/10/11 09:13:34;;;;;;;13.40;1.48;;;13.30;99.90;;;;;;6308436;22;20357;-75
2022/10/11 09:16:24;;;;;;;12.88;1.75;;;13.20;99.90;;;;;;6280061;22;20012;-76
2022/10/11 09:19:08;;;;;;;5.35;1.05;;;13.10;99.90;;;;;;6280295;22;20084;-75
2022/10/11 09:21:44;;;;;;;11.68;1.33;;;13.10;99.90;;;;;;6281151;22;20015;-76
2022/10/11 09:24:33;;;;;;;5.78;1.13;;;13.10;99.90;;;;;;6281192;22;20014;-85
2022/10/11 09:27:19;;;;;;;7.53;1.30;;;13.10;99.90;;;;;;6307997;22;20018;-77
2022/10/11 09:30:01;;;;;;;8.27;1.02;;;13.20;99.90;;;;;;6280314;22;20007;-77
2022/10/11 09:32:39;;;;;;;3.88;1.20;;;13.20;99.90;;;;;;6307898;22;20021;-78
2022/10/11 09:35:17;;;;;;;7.15;1.90;;;13.20;99.90;;;;;;6255817;22;20317;-77
2022/10/11 09:38:01;;;;;;;8.00;1.20;;;13.10;99.90;;;;;;6280187;22;20429;-79
2022/10/11 09:41:05;;;;;;;9.05;1.38;;;13.20;99.90;;;;;;6280054;22;20065;-78
2022/10/11 09:43:31;;;;;;;8.32;1.33;;;13.10;99.90;;;;;;6253022;22;20015;-77
2022/10/11 09:45:57;;;;;;;11.30;1.60;;;13.20;99.90;;;;;;6280325;22;20011;-77
2022/10/11 09:48:29;;;;;;;7.03;1.00;;;13.20;99.90;;;;;;6254500;22;20034;-76
2022/10/11 09:51:03;;;;;;;14.05;1.48;;;13.40;99.90;;;;;;6280090;22;20015;-78
2022/10/11 09:53:51;;;;;;;6.10;1.20;;;13.50;99.90;;;;;;6254780;22;20440;-78
2022/10/11 09:56:17;;;;;;;9.48;1.50;;;13.60;99.90;;;;;;6280128;22;20026;-75
2022/10/11 09:58:42;;;;;;;6.85;1.08;;;13.80;99.90;;;;;;6280262;22;20011;-77
2022/10/11 10:01:21;;;;;;;4.30;0.90;;;13.90;99.90;;;;;;6279744;22;20425;-80
2022/10/11 10:03:47;;;;;;;8.25;1.25;;;14.10;99.90;;;;;;6255604;22;20341;-76
2022/10/11 10:06:15;;;;;;;11.13;1.25;;;14.10;99.90;;;;;;6287761;22;20011;-77
2022/10/11 10:08:42;;;;;;;4.72;1.77;;;14.20;99.90;;;;;;6260749;22;20440;-78
2022/10/11 10:11:09;;;;;;;7.18;1.33;;;14.30;99.90;;;;;;6280830;22;20019;-77
2022/10/11 10:13:34;;;;;;;5.72;1.30;;;14.30;99.90;;;;;;6280835;22;20053;-75
2022/10/11 10:16:02;;;;;;;5.35;1.42;;;14.40;99.90;;;;;;6280516;22;20345;-77
2022/10/11 10:18:40;;;;;;;5.43;1.10;;;14.50;99.90;;;;;;6281373;22;20047;-78
2022/10/11 10:21:11;;;;;;;8.13;1.83;;;14.60;99.90;;;;;;6280827;22;20049;-79
2022/10/11 10:23:36;;;;;;;12.75;1.98;;;14.60;99.90;;;;;;6281042;22;20344;-80
2022/10/11 10:26:20;;;;;;;8.02;1.20;;;14.80;99.90;;;;;;6280550;22;20011;-75
2022/10/11 10:28:57;;;;;;;16.58;1.60;;;14.80;99.90;;;;;;6307887;22;20340;-76
2022/10/11 10:31:43;;;;;;;13.00;1.35;;;14.90;99.90;;;;;;6280462;22;20045;-76
2022/10/11 10:34:14;;;;;;;8.05;1.23;;;15.00;99.90;;;;;;6281314;22;20015;-77
2022/10/11 10:36:46;;;;;;;8.75;1.42;;;15.10;99.90;;;;;;6282371;22;20428;-78
2022/10/11 10:39:44;;;;;;;11.18;2.38;;;15.20;99.90;;;;;;6282638;22;20015;-77
2022/10/11 10:42:15;;;;;;;7.95;1.40;;;15.20;99.90;;;;;;6273812;22;20488;-80
2022/10/11 10:44:42;;;;;;;11.75;1.67;;;15.10;99.90;;;;;;6282845;22;20037;-79
2022/10/11 10:47:29;;;;;;;7.38;1.45;;;15.10;99.90;;;;;;6282722;22;20090;-78
2022/10/11 10:50:24;;;;;;;8.00;1.48;;;15.10;99.90;;;;;;6256160;22;20011;-79
2022/10/11 10:53:05;;;;;;;14.15;1.33;;;15.20;99.90;;;;;;6281103;22;20110;-78
2022/10/11 10:55:41;;;;;;;4.75;1.38;;;15.30;99.90;;;;;;6281802;22;20333;-79
2022/10/11 10:58:22;;;;;;;10.25;1.48;;;15.30;99.90;;;;;;6281714;22;20015;-79
2022/10/11 11:00:54;;;;;;;8.57;1.88;;;15.50;99.90;;;;;;6255882;22;20111;-79
2022/10/11 11:03:26;;;;;;;10.48;1.38;;;15.50;99.90;;;;;;6280610;22;20011;-81
2022/10/11 11:06:00;;;;;;;9.52;1.23;;;15.70;99.90;;;;;;6280438;22;20056;-78
2022/10/11 11:08:45;;;;;;;13.13;2.47;;;15.90;99.90;;;;;;6281499;22;20011;-80
2022/10/11 11:11:52;;;;;;;5.63;0.93;;;15.90;99.90;;;;;;6281710;22;20011;-78
2022/10/11 11:14:32;;;;;;;10.18;1.17;;;15.60;99.90;;;;;;6134758;23;20025;-79
2022/10/11 11:17:16;;;;;;;6.88;1.15;;;15.20;99.90;;;;;;6268289;22;20011;-79
2022/10/11 11:20:02;;;;;;;4.00;1.02;;;14.90;99.90;;;;;;6309024;22;20019;-78
2022/10/11 11:22:59;;;;;;;5.05;0.93;;;14.70;99.90;;;;;;6281574;22;20062;-77
2022/10/11 11:25:31;;;;;;;6.38;0.88;;;14.50;99.90;;;;;;6282010;22;20471;-79
2022/10/11 11:28:05;;;;;;;6.05;1.05;;;14.30;99.90;;;;;;6281833;22;20501;-79
2022/10/11 11:30:57;;;;;;;8.23;1.50;;;14.20;99.90;;;;;;6281709;22;20008;-77
2022/10/11 11:33:39;;;;;;;7.65;1.65;;;14.10;99.90;;;;;;6281579;22;20019;-79
2022/10/11 11:36:11;;;;;;;7.45;1.08;;;14.00;99.90;;;;;;6281624;22;20007;-79
2022/10/11 11:38:49;;;;;;;7.13;1.63;;;13.90;99.90;;;;;;6281784;22;20368;-77
2022/10/11 11:41:20;;;;;;;8.45;1.00;;;14.20;99.90;;;;;;6281352;22;20019;-78
2022/10/11 11:44:02;;;;;;;6.60;1.52;;;14.50;99.90;;;;;;6281162;22;20019;-79
2022/10/11 11:46:33;;;;;;;9.85;1.23;;;14.80;99.90;;;;;;6281548;22;20011;-81
2022/10/11 11:49:05;;;;;;;13.02;1.98;;;15.20;99.90;;;;;;6282044;22;20046;-80
2022/10/11 11:51:41;;;;;;;8.50;2.17;;;15.30;99.90;;;;;;6309146;22;20448;-77
2022/10/11 11:54:35;;;;;;;8.23;1.10;;;15.60;99.90;;;;;;6282111;22;20011;-82
2022/10/11 11:57:19;;;;;;;9.52;1.00;;;15.60;99.90;;;;;;6309124;22;20019;-82
2022/10/11 12:00:03;;;;;;;5.80;0.73;;;15.80;99.90;;;;;;6282297;22;20015;-81
2022/10/11 12:02:51;;;;;;;10.80;2.30;;;16.00;99.90;;;;;;6282022;22;20088;-83
2022/10/11 12:05:21;;;;;;;8.10;1.52;;;16.00;99.90;;;;;;6282129;22;20421;-81
2022/10/11 12:07:49;;;;;;;9.65;1.45;;;16.20;99.90;;;;;;6309236;22;20015;-81
2022/10/11 12:10:23;;;;;;;4.60;1.10;;;16.40;99.90;;;;;;6283065;22;20011;-82
2022/10/11 12:13:19;;;;;;;4.93;1.37;;;16.50;99.90;;;;;;6309950;22;20046;-82
2022/10/11 12:16:04;;;;;;;7.30;1.23;;;16.60;99.90;;;;;;6281661;22;20046;-82
2022/10/11 12:18:33;;;;;;;7.80;1.48;;;16.60;99.90;;;;;;6256485;22;20011;-80
2022/10/11 12:21:17;;;;;;;2.70;0.63;;;16.30;99.90;;;;;;6281538;22;20444;-79
2022/10/11 12:23:50;;;;;;;6.80;0.90;;;16.10;99.90;;;;;;6256997;22;20091;-81
2022/10/11 12:26:31;;;;;;;11.05;1.25;;;16.00;99.90;;;;;;6282213;22;20015;-83
2022/10/11 12:29:18;;;;;;;9.10;1.60;;;16.10;99.90;;;;;;6281969;22;20060;-81
2022/10/11 12:31:49;;;;;;;4.72;1.05;;;16.10;99.90;;;;;;6281633;22;20012;-82
2022/10/11 12:34:33;;;;;;;8.25;1.20;;;16.40;99.90;;;;;;6282000;22;20015;-82
2022/10/11 12:36:59;;;;;;;6.85;0.82;;;16.40;99.90;;;;;;6281681;22;20015;-82
2022/10/11 12:39:25;;;;;;;7.38;1.05;;;16.20;99.90;;;;;;6281448;22;20015;-80
2022/10/11 12:42:06;;;;;;;8.57;2.65;;;16.00;99.90;;;;;;6281307;22;20011;-80
2022/10/11 12:44:32;;;;;;;5.85;1.33;;;15.80;99.90;;;;;;6256954;22;20399;-82
2022/10/11 12:47:12;;;;;;;6.55;1.40;;;15.80;99.90;;;;;;6309727;22;20047;-82
2022/10/11 12:50:12;;;;;;;5.53;1.05;;;15.70;99.90;;;;;;6281679;22;20049;-81
2022/10/11 12:53:00;;;;;;;7.07;0.90;;;15.40;99.90;;;;;;6308687;22;20039;-83
2022/10/11 12:55:39;;;;;;;9.23;1.00;;;15.50;99.90;;;;;;6224884;22;20023;-81
2022/10/11 12:58:06;;;;;;;12.35;1.38;;;15.50;99.90;;;;;;6308616;22;20085;-79
2022/10/11 13:00:50;;;;;;;6.10;0.85;;;15.30;99.90;;;;;;6308127;22;20023;-81
2022/10/11 13:03:38;;;;;;;9.07;1.23;;;15.00;99.90;;;;;;6281713;22;20023;-80
2022/10/11 13:06:13;;;;;;;5.88;1.15;;;14.80;99.90;;;;;;6308538;22;20090;-82
2022/10/11 13:08:42;;;;;;;3.80;0.70;;;14.60;99.90;;;;;;6308739;22;20065;-82
2022/10/11 13:11:14;;;;;;;4.95;1.00;;;14.50;99.90;;;;;;6308226;22;20020;-81
2022/10/11 13:13:43;;;;;;;6.18;0.93;;;14.70;99.90;;;;;;6280940;22;20007;-79
2022/10/11 13:16:17;;;;;;;3.25;0.70;;;14.90;99.90;;;;;;6280794;22;20459;-81
2022/10/11 13:18:47;;;;;;;9.73;0.90;;;15.10;99.90;;;;;;6280396;22;20045;-80
2022/10/11 13:21:38;;;;;;;5.82;0.90;;;15.00;99.90;;;;;;6280154;22;20046;-80
2022/10/11 13:24:16;;;;;;;6.20;0.75;;;14.90;99.90;;;;;;6280358;22;20011;-81
2022/10/11 13:26:44;;;;;;;7.00;0.70;;;14.70;99.90;;;;;;6254959;22;20383;-80
2022/10/11 13:29:15;;;;;;;3.28;0.80;;;14.60;99.90;;;;;;6280397;22;20412;-81
2022/10/11 13:31:43;;;;;;;3.17;0.90;;;14.50;99.90;;;;;;6280249;22;20084;-82
2022/10/11 13:34:11;;;;;;;5.25;0.95;;;14.80;99.90;;;;;;6307964;22;20014;-82
2022/10/11 13:36:37;;;;;;;9.25;1.00;;;14.90;99.90;;;;;;6254697;22;20413;-81
2022/10/11 13:39:03;;;;;;;5.15;1.15;;;14.90;99.90;;;;;;6280335;22;20015;-83
2022/10/11 13:41:29;;;;;;;9.98;1.30;;;14.70;99.90;;;;;;6307649;22;20007;-82
2022/10/11 13:43:59;;;;;;;7.45;1.08;;;14.60;99.90;;;;;;6280155;22;20039;-80
2022/10/11 13:46:27;;;;;;;3.78;0.73;;;14.50;99.90;;;;;;6254991;22;20011;-80
2022/10/11 13:49:00;;;;;;;9.63;1.05;;;14.30;99.90;;;;;;6308727;22;20003;-80
2022/10/11 13:51:34;;;;;;;3.47;0.70;;;14.40;99.90;;;;;;6281066;22;20023;-81
2022/10/11 13:54:06;;;;;;;7.22;0.80;;;14.40;99.90;;;;;;6280911;22;20050;-81
2022/10/11 13:56:46;;;;;;;7.30;1.05;;;14.60;99.90;;;;;;6255202;22;20069;-81
2022/10/11 13:59:21;;;;;;;7.85;0.93;;;14.80;99.90;;;;;;6308651;22;20039;-80
2022/10/11 14:01:47;;;;;;;9.18;1.85;;;15.10;99.90;;;;;;6281157;22;20015;-79
2022/10/11 14:04:16;;;;;;;6.57;0.80;;;15.20;99.90;;;;;;6281182;22;20011;-80
2022/10/11 14:06:52;;;;;;;5.10;0.88;;;15.30;99.90;;;;;;6280894;22;20056;-80
2022/10/11 14:09:28;;;;;;;5.15;0.73;;;15.50;99.90;;;;;;6309164;22;20084;-80
2022/10/11 14:11:55;;;;;;;4.38;0.80;;;15.60;99.90;;;;;;6283441;22;20019;-83
2022/10/11 14:14:32;;;;;;;7.28;1.05;;;15.60;99.90;;;;;;6257151;22;20065;-81
2022/10/11 14:17:09;;;;;;;6.70;0.90;;;15.50;99.90;;;;;;6283347;22;20344;-79
2022/10/11 14:19:36;;;;;;;6.45;0.75;;;15.60;99.90;;;;;;6282839;22;20064;-81
2022/10/11 14:22:04;;;;;;;4.03;0.80;;;15.50;99.90;;;;;;6310251;22;20054;-80
2022/10/11 14:24:30;;;;;;;4.68;1.23;;;15.70;99.90;;;;;;6283281;22;20008;-82
2022/10/11 14:26:57;;;;;;;9.65;1.52;;;15.60;99.90;;;;;;6310490;22;20015;-79
2022/10/11 14:29:26;;;;;;;6.43;1.05;;;15.60;99.90;;;;;;6282909;22;20019;-82
2022/10/11 14:32:00;;;;;;;8.77;1.55;;;15.70;99.90;;;;;;6283035;22;20441;-80
2022/10/11 14:34:26;;;;;;;12.05;0.90;;;15.70;99.90;;;;;;6310447;22;20011;-82
2022/10/11 14:36:52;;;;;;;6.00;1.00;;;15.60;99.90;;;;;;6310282;22;20055;-82
2022/10/11 14:39:23;;;;;;;7.05;1.02;;;15.60;99.90;;;;;;6309733;22;20007;-81
2022/10/11 14:41:51;;;;;;;4.45;0.80;;;15.60;99.90;;;;;;6309896;22;20039;-82
2022/10/11 14:44:18;;;;;;;5.18;1.45;;;15.50;99.90;;;;;;6310160;22;20086;-81
2022/10/11 14:46:45;;;;;;;10.30;1.38;;;15.50;99.90;;;;;;6310204;22;20014;-81
2022/10/11 14:49:17;;;;;;;5.70;0.95;;;15.40;99.90;;;;;;6310218;22;20007;-83
2022/10/11 14:51:44;;;;;;;8.77;1.45;;;15.10;99.90;;;;;;6256922;22;20011;-81
2022/10/11 14:54:10;;;;;;;7.63;1.67;;;14.90;99.90;;;;;;6283559;22;20310;-81
2022/10/11 14:56:36;;;;;;;12.48;1.65;;;14.80;99.90;;;;;;6283201;22;20084;-80
2022/10/11 14:59:02;;;;;;;9.40;1.30;;;14.70;99.90;;;;;;6282564;22;20019;-80
2022/10/11 15:01:28;;;;;;;6.30;1.00;;;14.70;99.90;;;;;;6282330;22;20054;-79
2022/10/11 15:03:53;;;;;;;5.22;1.10;;;14.50;99.90;;;;;;6282781;22;20064;-80
2022/10/11 15:06:27;;;;;;;5.03;1.13;;;14.50;99.90;;;;;;6282520;22;20443;-80
2022/10/11 15:08:53;;;;;;;5.10;1.13;;;14.50;99.90;;;;;;6282389;22;20425;-81
2022/10/11 15:11:20;;;;;;;7.85;2.22;;;14.70;99.90;;;;;;6282083;22;20011;-79
2022/10/11 15:13:46;;;;;;;4.93;1.40;;;14.80;99.90;;;;;;6282783;22;20051;-82
2022/10/11 15:16:15;;;;;;;4.75;0.90;;;15.00;99.90;;;;;;6282314;22;20015;-79
2022/10/11 15:18:41;;;;;;;8.68;1.23;;;15.00;99.90;;;;;;6282298;22;20088;-82
2022/10/11 15:21:09;;;;;;;7.88;1.90;;;15.10;99.90;;;;;;6281513;22;20019;-80
2022/10/11 15:23:35;;;;;;;4.57;1.08;;;15.20;99.90;;;;;;6282118;22;20488;-81
2022/10/11 15:26:00;;;;;;;9.38;1.63;;;15.20;99.90;;;;;;6256715;22;20035;-80
2022/10/11 15:28:29;;;;;;;6.50;0.90;;;15.30;99.90;;;;;;6309434;22;20007;-80
2022/10/11 15:30:55;;;;;;;2.72;0.80;;;15.30;99.90;;;;;;6281622;22;20019;-81
2022/10/11 15:33:21;;;;;;;8.32;1.13;;;15.30;99.90;;;;;;6309633;22;20056;-81
2022/10/11 15:35:47;;;;;;;6.38;1.00;;;15.30;99.90;;;;;;6309583;22;20121;-82
2022/10/11 15:38:21;;;;;;;9.93;1.65;;;15.30;99.90;;;;;;6308935;22;20019;-79
2022/10/11 15:40:48;;;;;;;5.93;1.10;;;15.30;99.90;;;;;;6255900;22;20015;-79
2022/10/11 15:43:14;;;;;;;9.57;1.30;;;15.30;99.90;;;;;;6282789;22;20086;-80
2022/10/11 15:45:40;;;;;;;9.00;1.38;;;15.40;99.90;;;;;;6309762;22;20007;-79
2022/10/11 15:48:07;;;;;;;5.82;1.20;;;15.40;99.90;;;;;;6285007;22;20039;-77
2022/10/11 15:50:36;;;;;;;5.15;1.17;;;15.30;99.90;;;;;;6291550;22;20384;-80
2022/10/11 15:53:12;;;;;;;6.72;0.90;;;15.20;99.90;;;;;;6264227;22;20011;-81
2022/10/11 15:55:40;;;;;;;5.28;1.10;;;15.20;99.90;;;;;;6282824;22;20491;-79
2022/10/11 15:58:13;;;;;;;7.72;1.92;;;15.10;99.90;;;;;;6282330;22;20499;-80
2022/10/11 16:00:39;;;;;;;6.38;1.02;;;15.10;99.90;;;;;;6256449;22;20408;-82
2022/10/11 16:03:05;;;;;;;5.47;1.17;;;14.90;99.90;;;;;;6282321;22;20074;-81
2022/10/11 16:05:31;;;;;;;3.88;0.90;;;14.80;99.90;;;;;;6256324;22;20011;-80
2022/10/11 16:07:58;;;;;;;6.95;1.10;;;14.80;99.90;;;;;;6309723;22;20010;-80